sensor_id;sensor_type;location;lat;lon;timestamp;temperature;humidity
42339;DHT22;27993;45.392;10.918;2023-01-05T00:02:28;10.20;99.90
42339;DHT22;27993;45.392;10.918;2023-01-05T00:04:59;10.10;99.90
42339;DHT22;27993;45.392;10.918;2023-01-05T00:07:29;10.00;99.90
42339;DHT22;27993;45.392;10.918;2023-01-05T00:10:00;10.10;99.90
42339;DHT22;27993;45.392;10.918;2023-01-05T00:12:31;10.00;99.90
42339;DHT22;27993;45.392;10.918;2023-01-05T00:15:20;9.90;99.90
42339;DHT22;27993;45.392;10.918;2023-01-05T00:18:11;9.90;99.90
42339;DHT22;27993;45.392;10.918;2023-01-05T00:21:02;9.90;99.90
42339;DHT22;27993;45.392;10.918;2023-01-05T00:23:51;9.80;99.90
42339;DHT22;27993;45.392;10.918;2023-01-05T00:26:22;9.80;99.90
42339;DHT22;27993;45.392;10.918;2023-01-05T00:28:52;9.70;99.90
42339;DHT22;27993;45.392;10.918;2023-01-05T00:31:23;9.70;99.90
42339;DHT22;27993;45.392;10.918;2023-01-05T00:33:53;9.70;99.90
42339;DHT22;27993;45.392;10.918;2023-01-05T00:36:24;9.70;99.90
42339;DHT22;27993;45.392;10.918;2023-01-05T00:38:55;9.70;99.90
42339;DHT22;27993;45.392;10.918;2023-01-05T00:41:25;9.70;99.90
42339;DHT22;27993;45.392;10.918;2023-01-05T00:43:56;9.80;99.90
42339;DHT22;27993;45.392;10.918;2023-01-05T00:46:26;9.80;99.90
42339;DHT22;27993;45.392;10.918;2023-01-05T00:48:57;9.70;99.90
42339;DHT22;27993;45.392;10.918;2023-01-05T00:51:28;9.60;99.90
42339;DHT22;27993;45.392;10.918;2023-01-05T00:53:58;9.60;99.90
42339;DHT22;27993;45.392;10.918;2023-01-05T00:56:29;9.60;99.90
42339;DHT22;27993;45.392;10.918;2023-01-05T00:59:00;9.50;99.90
42339;DHT22;27993;45.392;10.918;2023-01-05T01:01:30;9.50;99.90
42339;DHT22;27993;45.392;10.918;2023-01-05T01:04:01;9.60;99.90
42339;DHT22;27993;45.392;10.918;2023-01-05T01:06:31;9.60;99.90
42339;DHT22;27993;45.392;10.918;2023-01-05T01:09:02;9.60;99.90
42339;DHT22;27993;45.392;10.918;2023-01-05T01:11:33;9.70;99.90
42339;DHT22;27993;45.392;10.918;2023-01-05T01:14:05;9.60;99.90
42339;DHT22;27993;45.392;10.918;2023-01-05T01:16:36;9.60;99.90
42339;DHT22;27993;45.392;10.918;2023-01-05T01:19:08;9.60;99.90
42339;DHT22;27993;45.392;10.918;2023-01-05T01:21:39;9.60;99.90
42339;DHT22;27993;45.392;10.918;2023-01-05T01:24:18;9.60;99.90
42339;DHT22;27993;45.392;10.918;2023-01-05T01:26:49;9.60;99.90
42339;DHT22;27993;45.392;10.918;2023-01-05T01:29:20;9.60;99.90
42339;DHT22;27993;45.392;10.918;2023-01-05T01:31:52;9.60;99.90
42339;DHT22;27993;45.392;10.918;2023-01-05T01:34:23;9.70;99.90
42339;DHT22;27993;45.392;10.918;2023-01-05T01:36:54;9.60;99.90
42339;DHT22;27993;45.392;10.918;2023-01-05T01:39:25;9.60;99.90
42339;DHT22;27993;45.392;10.918;2023-01-05T01:41:56;9.60;99.90
42339;DHT22;27993;45.392;10.918;2023-01-05T01:47:28;9.60;99.90
42339;DHT22;27993;45.392;10.918;2023-01-05T01:50:37;9.60;99.90
42339;DHT22;27993;45.392;10.918;2023-01-05T01:53:07;9.60;99.90
42339;DHT22;27993;45.392;10.918;2023-01-05T01:55:39;9.60;99.90
42339;DHT22;27993;45.392;10.918;2023-01-05T01:58:13;9.50;99.90
42339;DHT22;27993;45.392;10.918;2023-01-05T02:00:46;9.40;99.90
42339;DHT22;27993;45.392;10.918;2023-01-05T02:03:17;9.30;99.90
42339;DHT22;27993;45.392;10.918;2023-01-05T02:05:48;9.40;99.90
42339;DHT22;27993;45.392;10.918;2023-01-05T02:08:18;9.40;99.90
42339;DHT22;27993;45.392;10.918;2023-01-05T02:33:35;9.50;99.90
42339;DHT22;27993;45.392;10.918;2023-01-05T02:42:09;9.60;99.90
42339;DHT22;27993;45.392;10.918;2023-01-05T02:44:43;9.60;99.90
42339;DHT22;27993;45.392;10.918;2023-01-05T02:52:41;9.40;99.90
42339;DHT22;27993;45.392;10.918;2023-01-05T02:55:17;9.40;99.90
42339;DHT22;27993;45.392;10.918;2023-01-05T02:58:10;9.50;99.90
42339;DHT22;27993;45.392;10.918;2023-01-05T03:00:50;9.50;99.90
42339;DHT22;27993;45.392;10.918;2023-01-05T03:08:51;9.60;99.90
42339;DHT22;27993;45.392;10.918;2023-01-05T03:11:35;9.60;99.90
42339;DHT22;27993;45.392;10.918;2023-01-05T03:14:31;9.60;99.90
42339;DHT22;27993;45.392;10.918;2023-01-05T03:17:04;9.60;99.90
42339;DHT22;27993;45.392;10.918;2023-01-05T03:19:39;9.70;99.90
42339;DHT22;27993;45.392;10.918;2023-01-05T03:22:20;9.70;99.90
42339;DHT22;27993;45.392;10.918;2023-01-05T03:25:11;9.70;99.90
42339;DHT22;27993;45.392;10.918;2023-01-05T03:28:03;9.70;99.90
42339;DHT22;27993;45.392;10.918;2023-01-05T03:31:08;9.80;99.90
42339;DHT22;27993;45.392;10.918;2023-01-05T03:34:26;9.80;99.90
42339;DHT22;27993;45.392;10.918;2023-01-05T03:37:23;9.80;99.90
42339;DHT22;27993;45.392;10.918;2023-01-05T03:39:55;9.70;99.90
42339;DHT22;27993;45.392;10.918;2023-01-05T03:42:28;9.70;99.90
42339;DHT22;27993;45.392;10.918;2023-01-05T03:44:59;9.70;99.90
42339;DHT22;27993;45.392;10.918;2023-01-05T03:47:30;9.70;99.90
42339;DHT22;27993;45.392;10.918;2023-01-05T03:50:01;9.70;99.90
42339;DHT22;27993;45.392;10.918;2023-01-05T03:52:32;9.80;99.90
42339;DHT22;27993;45.392;10.918;2023-01-05T03:55:02;9.70;99.90
42339;DHT22;27993;45.392;10.918;2023-01-05T03:57:33;9.70;99.90
42339;DHT22;27993;45.392;10.918;2023-01-05T04:00:04;9.70;99.90
42339;DHT22;27993;45.392;10.918;2023-01-05T04:02:35;9.70;99.90
42339;DHT22;27993;45.392;10.918;2023-01-05T04:05:06;9.70;99.90
42339;DHT22;27993;45.392;10.918;2023-01-05T04:07:37;9.70;99.90
42339;DHT22;27993;45.392;10.918;2023-01-05T04:10:08;9.70;99.90
42339;DHT22;27993;45.392;10.918;2023-01-05T04:12:39;9.60;99.90
42339;DHT22;27993;45.392;10.918;2023-01-05T04:15:10;9.60;99.90
42339;DHT22;27993;45.392;10.918;2023-01-05T04:17:40;9.70;99.90
42339;DHT22;27993;45.392;10.918;2023-01-05T04:20:11;9.70;99.90
42339;DHT22;27993;45.392;10.918;2023-01-05T04:22:42;9.60;99.90
42339;DHT22;27993;45.392;10.918;2023-01-05T04:25:13;9.60;99.90
42339;DHT22;27993;45.392;10.918;2023-01-05T04:27:43;9.70;99.90
42339;DHT22;27993;45.392;10.918;2023-01-05T04:30:14;9.60;99.90
42339;DHT22;27993;45.392;10.918;2023-01-05T04:32:44;9.70;99.90
42339;DHT22;27993;45.392;10.918;2023-01-05T04:35:15;9.80;99.90
42339;DHT22;27993;45.392;10.918;2023-01-05T04:37:46;9.70;99.90
42339;DHT22;27993;45.392;10.918;2023-01-05T04:40:17;9.70;99.90
42339;DHT22;27993;45.392;10.918;2023-01-05T04:42:47;9.70;99.90
42339;DHT22;27993;45.392;10.918;2023-01-05T04:45:18;9.70;99.90
42339;DHT22;27993;45.392;10.918;2023-01-05T04:47:50;9.70;99.90
42339;DHT22;27993;45.392;10.918;2023-01-05T04:50:22;9.70;99.90
42339;DHT22;27993;45.392;10.918;2023-01-05T04:52:53;9.70;99.90
42339;DHT22;27993;45.392;10.918;2023-01-05T04:55:23;9.70;99.90
42339;DHT22;27993;45.392;10.918;2023-01-05T04:57:54;9.80;99.90
42339;DHT22;27993;45.392;10.918;2023-01-05T05:00:25;9.80;99.90
42339;DHT22;27993;45.392;10.918;2023-01-05T05:02:55;9.90;99.90
42339;DHT22;27993;45.392;10.918;2023-01-05T05:05:26;9.90;99.90
42339;DHT22;27993;45.392;10.918;2023-01-05T05:07:57;9.90;99.90
42339;DHT22;27993;45.392;10.918;2023-01-05T05:10:27;9.80;99.90
42339;DHT22;27993;45.392;10.918;2023-01-05T05:12:58;9.90;99.90
42339;DHT22;27993;45.392;10.918;2023-01-05T05:15:29;9.90;99.90
42339;DHT22;27993;45.392;10.918;2023-01-05T05:17:59;9.90;99.90
42339;DHT22;27993;45.392;10.918;2023-01-05T05:20:30;9.90;99.90
42339;DHT22;27993;45.392;10.918;2023-01-05T05:23:00;9.90;99.90
42339;DHT22;27993;45.392;10.918;2023-01-05T05:25:31;9.90;99.90
42339;DHT22;27993;45.392;10.918;2023-01-05T05:28:02;9.90;99.90
42339;DHT22;27993;45.392;10.918;2023-01-05T05:30:32;9.90;99.90
42339;DHT22;27993;45.392;10.918;2023-01-05T05:33:03;9.80;99.90
42339;DHT22;27993;45.392;10.918;2023-01-05T05:35:33;9.90;99.90
42339;DHT22;27993;45.392;10.918;2023-01-05T05:38:04;9.90;99.90
42339;DHT22;27993;45.392;10.918;2023-01-05T05:40:35;9.90;99.90
42339;DHT22;27993;45.392;10.918;2023-01-05T05:43:05;9.90;99.90
42339;DHT22;27993;45.392;10.918;2023-01-05T05:45:36;9.80;99.90
42339;DHT22;27993;45.392;10.918;2023-01-05T05:48:06;9.80;99.90
42339;DHT22;27993;45.392;10.918;2023-01-05T05:50:37;9.80;99.90
42339;DHT22;27993;45.392;10.918;2023-01-05T05:53:08;9.90;99.90
42339;DHT22;27993;45.392;10.918;2023-01-05T05:55:38;9.90;99.90
42339;DHT22;27993;45.392;10.918;2023-01-05T05:58:09;10.00;99.90
42339;DHT22;27993;45.392;10.918;2023-01-05T06:00:40;9.90;99.90
42339;DHT22;27993;45.392;10.918;2023-01-05T06:03:10;9.90;99.90
42339;DHT22;27993;45.392;10.918;2023-01-05T06:05:41;9.80;99.90
42339;DHT22;27993;45.392;10.918;2023-01-05T06:08:12;9.70;99.90
42339;DHT22;27993;45.392;10.918;2023-01-05T06:10:42;9.70;99.90
42339;DHT22;27993;45.392;10.918;2023-01-05T06:13:13;9.80;99.90
42339;DHT22;27993;45.392;10.918;2023-01-05T06:15:44;9.80;99.90
42339;DHT22;27993;45.392;10.918;2023-01-05T06:18:15;9.90;99.90
42339;DHT22;27993;45.392;10.918;2023-01-05T06:20:46;9.80;99.90
42339;DHT22;27993;45.392;10.918;2023-01-05T06:23:16;9.70;99.90
42339;DHT22;27993;45.392;10.918;2023-01-05T06:25:47;9.70;99.90
42339;DHT22;27993;45.392;10.918;2023-01-05T06:28:18;9.70;99.90
42339;DHT22;27993;45.392;10.918;2023-01-05T06:30:48;9.70;99.90
42339;DHT22;27993;45.392;10.918;2023-01-05T06:33:19;9.70;99.90
42339;DHT22;27993;45.392;10.918;2023-01-05T06:35:49;9.70;99.90
42339;DHT22;27993;45.392;10.918;2023-01-05T06:38:20;9.80;99.90
42339;DHT22;27993;45.392;10.918;2023-01-05T06:40:51;9.80;99.90
42339;DHT22;27993;45.392;10.918;2023-01-05T06:43:21;9.70;99.90
42339;DHT22;27993;45.392;10.918;2023-01-05T06:45:52;9.70;99.90
42339;DHT22;27993;45.392;10.918;2023-01-05T06:48:23;9.80;99.90
42339;DHT22;27993;45.392;10.918;2023-01-05T06:50:53;9.70;99.90
42339;DHT22;27993;45.392;10.918;2023-01-05T06:53:24;9.70;99.90
42339;DHT22;27993;45.392;10.918;2023-01-05T06:55:55;9.70;99.90
42339;DHT22;27993;45.392;10.918;2023-01-05T06:58:25;9.70;99.90
42339;DHT22;27993;45.392;10.918;2023-01-05T07:00:56;9.60;99.90
42339;DHT22;27993;45.392;10.918;2023-01-05T07:03:26;9.50;99.90
42339;DHT22;27993;45.392;10.918;2023-01-05T07:05:57;9.40;99.90
42339;DHT22;27993;45.392;10.918;2023-01-05T07:08:28;9.30;99.90
42339;DHT22;27993;45.392;10.918;2023-01-05T07:10:58;9.30;99.90
42339;DHT22;27993;45.392;10.918;2023-01-05T07:13:29;9.30;99.90
42339;DHT22;27993;45.392;10.918;2023-01-05T07:16:00;9.30;99.90
42339;DHT22;27993;45.392;10.918;2023-01-05T07:18:30;9.10;99.90
42339;DHT22;27993;45.392;10.918;2023-01-05T07:21:01;8.90;99.90
42339;DHT22;27993;45.392;10.918;2023-01-05T07:23:32;8.70;99.90
42339;DHT22;27993;45.392;10.918;2023-01-05T07:26:04;8.70;99.90
42339;DHT22;27993;45.392;10.918;2023-01-05T07:28:35;8.70;99.90
42339;DHT22;27993;45.392;10.918;2023-01-05T07:31:07;8.60;99.90
42339;DHT22;27993;45.392;10.918;2023-01-05T07:33:38;8.50;99.90
42339;DHT22;27993;45.392;10.918;2023-01-05T07:36:08;8.40;99.90
42339;DHT22;27993;45.392;10.918;2023-01-05T07:38:39;8.40;99.90
42339;DHT22;27993;45.392;10.918;2023-01-05T07:41:10;8.50;99.90
42339;DHT22;27993;45.392;10.918;2023-01-05T07:43:41;8.50;99.90
42339;DHT22;27993;45.392;10.918;2023-01-05T07:46:11;8.60;99.90
42339;DHT22;27993;45.392;10.918;2023-01-05T07:48:42;8.50;99.90
42339;DHT22;27993;45.392;10.918;2023-01-05T07:51:13;8.40;99.90
42339;DHT22;27993;45.392;10.918;2023-01-05T07:53:43;8.50;99.90
42339;DHT22;27993;45.392;10.918;2023-01-05T07:56:14;8.40;99.90
42339;DHT22;27993;45.392;10.918;2023-01-05T07:58:45;8.40;99.90
42339;DHT22;27993;45.392;10.918;2023-01-05T08:01:15;8.50;99.90
42339;DHT22;27993;45.392;10.918;2023-01-05T08:03:49;8.70;99.90
42339;DHT22;27993;45.392;10.918;2023-01-05T08:06:19;8.70;99.90
42339;DHT22;27993;45.392;10.918;2023-01-05T08:08:50;8.80;99.90
42339;DHT22;27993;45.392;10.918;2023-01-05T08:11:21;8.90;99.90
42339;DHT22;27993;45.392;10.918;2023-01-05T08:13:52;9.00;99.90
42339;DHT22;27993;45.392;10.918;2023-01-05T08:16:34;9.00;99.90
42339;DHT22;27993;45.392;10.918;2023-01-05T08:19:05;9.00;99.90
42339;DHT22;27993;45.392;10.918;2023-01-05T08:21:36;9.00;99.90
42339;DHT22;27993;45.392;10.918;2023-01-05T08:24:07;8.90;99.90
42339;DHT22;27993;45.392;10.918;2023-01-05T08:26:37;9.00;99.90
42339;DHT22;27993;45.392;10.918;2023-01-05T08:29:08;9.10;99.90
42339;DHT22;27993;45.392;10.918;2023-01-05T08:31:39;9.20;99.90
42339;DHT22;27993;45.392;10.918;2023-01-05T08:34:09;9.20;99.90
42339;DHT22;27993;45.392;10.918;2023-01-05T08:36:40;9.30;99.90
42339;DHT22;27993;45.392;10.918;2023-01-05T08:39:11;9.40;99.90
42339;DHT22;27993;45.392;10.918;2023-01-05T08:41:42;9.40;99.90
42339;DHT22;27993;45.392;10.918;2023-01-05T08:44:13;9.50;99.90
42339;DHT22;27993;45.392;10.918;2023-01-05T08:46:44;9.50;99.90
42339;DHT22;27993;45.392;10.918;2023-01-05T08:49:15;9.50;99.90
42339;DHT22;27993;45.392;10.918;2023-01-05T08:51:46;9.60;99.90
42339;DHT22;27993;45.392;10.918;2023-01-05T08:54:16;9.40;99.90
42339;DHT22;27993;45.392;10.918;2023-01-05T08:56:47;9.50;99.90
42339;DHT22;27993;45.392;10.918;2023-01-05T08:59:20;9.60;99.90
42339;DHT22;27993;45.392;10.918;2023-01-05T09:01:50;9.70;99.90
42339;DHT22;27993;45.392;10.918;2023-01-05T09:04:21;9.80;99.90
42339;DHT22;27993;45.392;10.918;2023-01-05T09:06:51;9.90;99.90
42339;DHT22;27993;45.392;10.918;2023-01-05T09:09:22;9.90;99.90
42339;DHT22;27993;45.392;10.918;2023-01-05T09:11:53;10.00;99.90
42339;DHT22;27993;45.392;10.918;2023-01-05T09:14:24;10.00;99.90
42339;DHT22;27993;45.392;10.918;2023-01-05T09:16:55;10.10;99.90
42339;DHT22;27993;45.392;10.918;2023-01-05T09:19:25;10.30;99.90
42339;DHT22;27993;45.392;10.918;2023-01-05T09:21:56;10.60;99.90
42339;DHT22;27993;45.392;10.918;2023-01-05T09:24:27;10.90;99.90
42339;DHT22;27993;45.392;10.918;2023-01-05T09:26:59;11.00;99.90
42339;DHT22;27993;45.392;10.918;2023-01-05T09:29:30;11.20;99.90
42339;DHT22;27993;45.392;10.918;2023-01-05T09:32:01;11.40;99.90
42339;DHT22;27993;45.392;10.918;2023-01-05T09:34:32;11.40;99.90
42339;DHT22;27993;45.392;10.918;2023-01-05T09:37:02;11.70;99.90
42339;DHT22;27993;45.392;10.918;2023-01-05T09:39:33;11.80;99.90
42339;DHT22;27993;45.392;10.918;2023-01-05T09:42:06;11.80;99.90
42339;DHT22;27993;45.392;10.918;2023-01-05T09:44:47;11.80;99.90
42339;DHT22;27993;45.392;10.918;2023-01-05T09:47:33;11.70;99.90
42339;DHT22;27993;45.392;10.918;2023-01-05T09:50:23;11.70;99.90
42339;DHT22;27993;45.392;10.918;2023-01-05T09:52:56;11.60;99.90
42339;DHT22;27993;45.392;10.918;2023-01-05T09:55:30;11.70;99.90
42339;DHT22;27993;45.392;10.918;2023-01-05T09:58:39;11.70;99.90
42339;DHT22;27993;45.392;10.918;2023-01-05T10:01:11;11.90;99.90
42339;DHT22;27993;45.392;10.918;2023-01-05T10:03:54;11.90;99.90
42339;DHT22;27993;45.392;10.918;2023-01-05T10:06:28;11.90;99.90
42339;DHT22;27993;45.392;10.918;2023-01-05T10:09:03;11.80;99.90
42339;DHT22;27993;45.392;10.918;2023-01-05T10:12:08;11.70;99.90
42339;DHT22;27993;45.392;10.918;2023-01-05T10:17:38;11.90;99.90
42339;DHT22;27993;45.392;10.918;2023-01-05T10:28:31;11.70;99.90
42339;DHT22;27993;45.392;10.918;2023-01-05T10:31:21;11.60;99.90
42339;DHT22;27993;45.392;10.918;2023-01-05T10:34:20;11.60;99.90
42339;DHT22;27993;45.392;10.918;2023-01-05T10:39:50;11.80;99.90
42339;DHT22;27993;45.392;10.918;2023-01-05T10:42:48;11.90;99.90
42339;DHT22;27993;45.392;10.918;2023-01-05T10:45:25;11.90;99.90
42339;DHT22;27993;45.392;10.918;2023-01-05T10:47:58;12.30;99.90
42339;DHT22;27993;45.392;10.918;2023-01-05T10:50:38;12.40;99.90
42339;DHT22;27993;45.392;10.918;2023-01-05T10:53:26;12.20;99.90
42339;DHT22;27993;45.392;10.918;2023-01-05T10:56:22;12.20;99.90
42339;DHT22;27993;45.392;10.918;2023-01-05T10:59:08;11.90;99.90
42339;DHT22;27993;45.392;10.918;2023-01-05T11:01:42;11.90;99.90
42339;DHT22;27993;45.392;10.918;2023-01-05T11:04:20;11.90;99.90
42339;DHT22;27993;45.392;10.918;2023-01-05T11:06:51;11.90;99.90
42339;DHT22;27993;45.392;10.918;2023-01-05T11:09:31;11.90;99.90
42339;DHT22;27993;45.392;10.918;2023-01-05T11:12:03;11.80;99.90
42339;DHT22;27993;45.392;10.918;2023-01-05T11:14:41;11.70;99.90
42339;DHT22;27993;45.392;10.918;2023-01-05T11:17:21;11.80;99.90
42339;DHT22;27993;45.392;10.918;2023-01-05T11:19:55;11.70;99.90
42339;DHT22;27993;45.392;10.918;2023-01-05T11:22:33;11.90;99.90
42339;DHT22;27993;45.392;10.918;2023-01-05T11:25:31;12.10;99.90
42339;DHT22;27993;45.392;10.918;2023-01-05T11:28:09;12.50;99.90
42339;DHT22;27993;45.392;10.918;2023-01-05T11:31:01;12.70;99.90
42339;DHT22;27993;45.392;10.918;2023-01-05T11:33:35;12.80;99.90
42339;DHT22;27993;45.392;10.918;2023-01-05T11:36:13;12.70;99.90
42339;DHT22;27993;45.392;10.918;2023-01-05T11:38:50;12.70;99.90
42339;DHT22;27993;45.392;10.918;2023-01-05T11:41:22;12.40;99.90
42339;DHT22;27993;45.392;10.918;2023-01-05T11:43:53;12.40;99.90
42339;DHT22;27993;45.392;10.918;2023-01-05T11:46:39;12.40;99.90
42339;DHT22;27993;45.392;10.918;2023-01-05T11:49:17;12.30;99.90
42339;DHT22;27993;45.392;10.918;2023-01-05T11:51:48;12.50;99.90
42339;DHT22;27993;45.392;10.918;2023-01-05T11:54:34;12.60;99.90
42339;DHT22;27993;45.392;10.918;2023-01-05T11:59:45;12.50;99.90
42339;DHT22;27993;45.392;10.918;2023-01-05T12:08:18;12.30;99.90
42339;DHT22;27993;45.392;10.918;2023-01-05T12:11:08;12.30;99.90
42339;DHT22;27993;45.392;10.918;2023-01-05T12:26:25;13.30;99.90
42339;DHT22;27993;45.392;10.918;2023-01-05T12:35:16;13.60;99.90
42339;DHT22;27993;45.392;10.918;2023-01-05T12:53:11;12.70;99.90
42339;DHT22;27993;45.392;10.918;2023-01-05T12:55:48;12.60;99.90
42339;DHT22;27993;45.392;10.918;2023-01-05T12:58:36;12.70;99.90
42339;DHT22;27993;45.392;10.918;2023-01-05T13:01:17;12.60;99.90
42339;DHT22;27993;45.392;10.918;2023-01-05T13:03:56;12.60;99.90
42339;DHT22;27993;45.392;10.918;2023-01-05T13:06:34;12.60;99.90
42339;DHT22;27993;45.392;10.918;2023-01-05T13:09:16;12.50;99.90
42339;DHT22;27993;45.392;10.918;2023-01-05T13:11:53;12.70;99.90
42339;DHT22;27993;45.392;10.918;2023-01-05T13:14:27;12.70;99.90
42339;DHT22;27993;45.392;10.918;2023-01-05T13:17:03;12.60;99.90
42339;DHT22;27993;45.392;10.918;2023-01-05T13:19:54;12.40;99.90
42339;DHT22;27993;45.392;10.918;2023-01-05T13:22:32;12.40;99.90
42339;DHT22;27993;45.392;10.918;2023-01-05T13:27:47;12.60;99.90
42339;DHT22;27993;45.392;10.918;2023-01-05T13:30:26;12.60;99.90
42339;DHT22;27993;45.392;10.918;2023-01-05T13:44:42;12.50;99.90
42339;DHT22;27993;45.392;10.918;2023-01-05T13:47:41;12.40;99.90
42339;DHT22;27993;45.392;10.918;2023-01-05T13:53:19;12.50;99.90
42339;DHT22;27993;45.392;10.918;2023-01-05T13:55:55;12.80;99.90
42339;DHT22;27993;45.392;10.918;2023-01-05T13:58:48;12.90;99.90
42339;DHT22;27993;45.392;10.918;2023-01-05T14:01:40;12.90;99.90
42339;DHT22;27993;45.392;10.918;2023-01-05T14:04:26;12.70;99.90
42339;DHT22;27993;45.392;10.918;2023-01-05T14:07:04;12.50;99.90
42339;DHT22;27993;45.392;10.918;2023-01-05T14:09:56;12.30;99.90
42339;DHT22;27993;45.392;10.918;2023-01-05T14:12:45;12.20;99.90
42339;DHT22;27993;45.392;10.918;2023-01-05T14:15:33;12.20;99.90
42339;DHT22;27993;45.392;10.918;2023-01-05T14:18:09;12.20;99.90
42339;DHT22;27993;45.392;10.918;2023-01-05T14:20:48;12.10;99.90
42339;DHT22;27993;45.392;10.918;2023-01-05T14:26:06;12.20;99.90
42339;DHT22;27993;45.392;10.918;2023-01-05T14:42:12;12.00;99.90
42339;DHT22;27993;45.392;10.918;2023-01-05T14:44:57;12.00;99.90
42339;DHT22;27993;45.392;10.918;2023-01-05T14:47:42;12.00;99.90
42339;DHT22;27993;45.392;10.918;2023-01-05T14:50:33;11.90;99.90
42339;DHT22;27993;45.392;10.918;2023-01-05T15:01:22;11.70;99.90
42339;DHT22;27993;45.392;10.918;2023-01-05T15:04:07;11.60;99.90
42339;DHT22;27993;45.392;10.918;2023-01-05T15:15:15;11.50;99.90
42339;DHT22;27993;45.392;10.918;2023-01-05T15:18:39;11.40;99.90
42339;DHT22;27993;45.392;10.918;2023-01-05T15:21:47;11.40;99.90
42339;DHT22;27993;45.392;10.918;2023-01-05T15:24:43;11.20;99.90
42339;DHT22;27993;45.392;10.918;2023-01-05T15:48:17;10.60;99.90
42339;DHT22;27993;45.392;10.918;2023-01-05T15:50:53;10.70;99.90
42339;DHT22;27993;45.392;10.918;2023-01-05T15:53:36;10.70;99.90
42339;DHT22;27993;45.392;10.918;2023-01-05T15:58:59;10.40;99.90
42339;DHT22;27993;45.392;10.918;2023-01-05T16:01:30;10.20;99.90
42339;DHT22;27993;45.392;10.918;2023-01-05T16:04:06;10.30;99.90
42339;DHT22;27993;45.392;10.918;2023-01-05T16:06:38;10.10;99.90
42339;DHT22;27993;45.392;10.918;2023-01-05T16:09:32;10.10;99.90
42339;DHT22;27993;45.392;10.918;2023-01-05T16:12:17;10.10;99.90
42339;DHT22;27993;45.392;10.918;2023-01-05T16:14:57;9.90;99.90
42339;DHT22;27993;45.392;10.918;2023-01-05T16:17:31;9.70;99.90
42339;DHT22;27993;45.392;10.918;2023-01-05T16:20:16;9.70;99.90
42339;DHT22;27993;45.392;10.918;2023-01-05T16:23:05;9.60;99.90
42339;DHT22;27993;45.392;10.918;2023-01-05T16:25:47;9.40;99.90
42339;DHT22;27993;45.392;10.918;2023-01-05T16:28:20;9.60;99.90
42339;DHT22;27993;45.392;10.918;2023-01-05T16:30:54;9.50;99.90
42339;DHT22;27993;45.392;10.918;2023-01-05T16:33:29;9.60;99.90
42339;DHT22;27993;45.392;10.918;2023-01-05T16:36:17;9.70;99.90
42339;DHT22;27993;45.392;10.918;2023-01-05T16:38:48;9.60;99.90
42339;DHT22;27993;45.392;10.918;2023-01-05T16:43:56;9.20;99.90
42339;DHT22;27993;45.392;10.918;2023-01-05T16:46:31;9.20;99.90
42339;DHT22;27993;45.392;10.918;2023-01-05T16:49:23;9.30;99.90
42339;DHT22;27993;45.392;10.918;2023-01-05T16:51:55;9.30;99.90
42339;DHT22;27993;45.392;10.918;2023-01-05T16:54:33;9.20;99.90
42339;DHT22;27993;45.392;10.918;2023-01-05T16:57:32;9.10;99.90
42339;DHT22;27993;45.392;10.918;2023-01-05T17:00:38;8.90;99.90
42339;DHT22;27993;45.392;10.918;2023-01-05T17:03:30;8.90;99.90
42339;DHT22;27993;45.392;10.918;2023-01-05T17:06:01;9.10;99.90
42339;DHT22;27993;45.392;10.918;2023-01-05T17:08:33;9.00;99.90
42339;DHT22;27993;45.392;10.918;2023-01-05T17:11:08;8.80;99.90
42339;DHT22;27993;45.392;10.918;2023-01-05T17:13:44;8.90;99.90
42339;DHT22;27993;45.392;10.918;2023-01-05T17:16:16;8.90;99.90
42339;DHT22;27993;45.392;10.918;2023-01-05T17:18:48;8.80;99.90
42339;DHT22;27993;45.392;10.918;2023-01-05T17:21:20;8.80;99.90
42339;DHT22;27993;45.392;10.918;2023-01-05T17:23:55;8.80;99.90
42339;DHT22;27993;45.392;10.918;2023-01-05T17:26:32;8.70;99.90
42339;DHT22;27993;45.392;10.918;2023-01-05T17:29:07;8.80;99.90
42339;DHT22;27993;45.392;10.918;2023-01-05T17:31:39;8.60;99.90
42339;DHT22;27993;45.392;10.918;2023-01-05T17:34:10;8.70;99.90
42339;DHT22;27993;45.392;10.918;2023-01-05T17:36:41;8.60;99.90
42339;DHT22;27993;45.392;10.918;2023-01-05T17:39:14;8.50;99.90
42339;DHT22;27993;45.392;10.918;2023-01-05T17:41:45;8.60;99.90
42339;DHT22;27993;45.392;10.918;2023-01-05T17:44:16;8.60;99.90
42339;DHT22;27993;45.392;10.918;2023-01-05T17:46:47;8.70;99.90
42339;DHT22;27993;45.392;10.918;2023-01-05T17:49:19;8.60;99.90
42339;DHT22;27993;45.392;10.918;2023-01-05T17:51:50;8.70;99.90
42339;DHT22;27993;45.392;10.918;2023-01-05T17:54:21;8.60;99.90
42339;DHT22;27993;45.392;10.918;2023-01-05T17:56:51;8.40;99.90
42339;DHT22;27993;45.392;10.918;2023-01-05T17:59:22;8.40;99.90
42339;DHT22;27993;45.392;10.918;2023-01-05T18:01:53;8.60;99.90
42339;DHT22;27993;45.392;10.918;2023-01-05T18:04:24;8.80;99.90
42339;DHT22;27993;45.392;10.918;2023-01-05T18:06:55;8.70;99.90
42339;DHT22;27993;45.392;10.918;2023-01-05T18:09:25;8.50;99.90
42339;DHT22;27993;45.392;10.918;2023-01-05T18:11:56;8.40;99.90
42339;DHT22;27993;45.392;10.918;2023-01-05T18:14:26;8.30;99.90
42339;DHT22;27993;45.392;10.918;2023-01-05T18:16:57;8.30;99.90
42339;DHT22;27993;45.392;10.918;2023-01-05T18:19:28;8.30;99.90
42339;DHT22;27993;45.392;10.918;2023-01-05T18:21:59;8.40;99.90
42339;DHT22;27993;45.392;10.918;2023-01-05T18:24:29;8.50;99.90
42339;DHT22;27993;45.392;10.918;2023-01-05T18:27:00;8.70;99.90
42339;DHT22;27993;45.392;10.918;2023-01-05T18:29:30;8.60;99.90
42339;DHT22;27993;45.392;10.918;2023-01-05T18:32:02;8.70;99.90
42339;DHT22;27993;45.392;10.918;2023-01-05T18:34:33;8.70;99.90
42339;DHT22;27993;45.392;10.918;2023-01-05T18:37:05;8.80;99.90
42339;DHT22;27993;45.392;10.918;2023-01-05T18:39:36;9.00;99.90
42339;DHT22;27993;45.392;10.918;2023-01-05T18:42:06;9.10;99.90
42339;DHT22;27993;45.392;10.918;2023-01-05T18:44:37;9.30;99.90
42339;DHT22;27993;45.392;10.918;2023-01-05T18:47:08;9.30;99.90
42339;DHT22;27993;45.392;10.918;2023-01-05T18:49:38;9.30;99.90
42339;DHT22;27993;45.392;10.918;2023-01-05T18:52:10;9.20;99.90
42339;DHT22;27993;45.392;10.918;2023-01-05T18:54:41;9.20;99.90
42339;DHT22;27993;45.392;10.918;2023-01-05T18:57:11;9.10;99.90
42339;DHT22;27993;45.392;10.918;2023-01-05T18:59:42;9.10;99.90
42339;DHT22;27993;45.392;10.918;2023-01-05T19:02:14;9.20;99.90
42339;DHT22;27993;45.392;10.918;2023-01-05T19:04:45;9.20;99.90
42339;DHT22;27993;45.392;10.918;2023-01-05T19:07:15;9.20;99.90
42339;DHT22;27993;45.392;10.918;2023-01-05T19:09:46;9.30;99.90
42339;DHT22;27993;45.392;10.918;2023-01-05T19:12:17;9.30;99.90
42339;DHT22;27993;45.392;10.918;2023-01-05T19:14:47;9.30;99.90